Quantcast Figure F-3. Sample TAF Printout

 

Click here to make tpub.com your Home Page

Page Title: Figure F-3. Sample TAF Printout
Back | Up | Next

Click here for thousands of PDF manuals

Google


Web
www.tpub.com

Home

   
Information Categories
.... Administration
Advancement
Aerographer
Automotive
Aviation
Construction
Diving
Draftsman
Engineering
Electronics
Food and Cooking
Logistics
Math
Medical
Music
Nuclear Fundamentals
Photography
Religion
   
   

 



METEOROLOGY FLIGHT PLANNING
APPENDIX F
KLAX 302012Z 302018 27010KT 3SM HZ SCT009
TEMPO 2202 BKNO15
FM0200 27008KT 3SM BR OVC015
FM0600 13005KT 2SM BR OVC009
KLFI 1818 02008KT 1600 RA FG OVC004 640806 QNH3000INS
TEMPO1822 VRB05KT 0800 FG VV001
BECMG222302011KT 6000HZBXN007BKN020OVC300650806QNH29931NSOCNLRA
TEMPO 0004 19006KT 4800 SHRA SCT009 BKN020
KNBG 1818 01005KT 3200 BR OVC006 ONH3013INS
FM0300 02008KT 0800 FG VV002 QNH3016INS
FM1400 05010KT 4800 RA BKN005 OVC012 QNH3009INS
KOAK 301730Z 301818 26010KT P6SM SCT250
BECMG 2021 28016G24FT
FM0400 27010KT P6SM SKC
FM1000 24006KT P6SM SKC
KPDQ 301941Z 301818 26015G22KT P6SM -SHRA SCT020 BKN040 OVC070
TEMPO 2022 5SM -SHRA BKN020
FM2200 29012G20KT P6SM SCT030 BKN050
TEMPO 2203 4SM -SHRA BKN030
FM0300 26012G20KT P6SM SCT020 BKN040
TEMPO 0309 -SHRA BKN030
KPDX 301737Z 301818 27008KT P6SM SCT025 BKN045
TEMPO 1802 4SM -SHRA BKN025CB OVC040
FM0200 25006KT P6SM SCT030 BKN050
TEMPO 0206 -SHRA BKN030
FM0600 25005KT P6SM SCT030 BKN060 PROB40 0610 -SHRA
FM1000 25005KT P6SM BKN035 OVC050 PROB40 1018 -SHRA
KSAN 301958Z 302018 21010KT P6SM SCT018
TEMPO 2023 BKN015
FM0200 19007KT P6SM BKN015
FM0800 16005KT P6SM OV0009
FM1200 18006KT 4SM BR OVC015
FM1700 20006KT 5SM HZ SCT015
KSEA 301747Z 301818 17007KT P6SM -SHRA FEW009 SCT011 OVC030
TEMPO 1822 SCT009 BKN011 OVC020
FM2200 22008KT P6SM -SHRA SCT020 OVC045
TEMPO 2206 SCT010 OVC025
FM0600 19008KT P6SM BKN018 OVC030
TEMPO 0618 -SHRA BKN011 OVC020
KTVL 301730Z 301818 20012G20KT P6SM SKC
BECMG 2022 19015G25KT
FMO200 19012KT P6SM SKC
BECMG 0406 VRB03KT
Figure F-3 Sample TAF Printout
FIGURES FOR EXAMINATIONS
F-3


Privacy Statement - Press Release - Copyright Information. - Contact Us

Integrated Publishing, Inc.